Terminal Aerodrome Forecast
Issued by NWS

Home | Current Version | Previous Version | Text Only | Print | Product List | Glossary On
Versions: 1 2 3 4 5 6 7 8 9 10 11 12 13 14 15 16 17 18 19 20 21 22
000
FTUS45 KRIW 170531
TAFJAC
TAF
KJAC 170531Z 1706/1806 02004KT P6SM VCFG SCT070 BKN100
     FM171300 VRB04KT P6SM VCFG SCT010
     FM172100 19005KT P6SM SCT200
     FM180200 VRB05KT P6SM SCT060 BKN200
      AMD LTD TO CLD VIS AND WIND=

USA.gov is the U.S. government's official web portal to all federal, state and local government web resources and services.